Time;durP1;ratioP1;P1;durP2;ratioP2;P2;SDS_P1;SDS_P2;PMS_P1;PMS_P2;Temp;Humidity;BMP_temperature;BMP_pressure;BME280_temperature;BME280_humidity;BME280_pressure;Samples;Min_cycle;Max_cycle;Signal;HPM_P1;HPM_P2
2023/11/10 00:01:15;;;;;;;4.20;1.33;;;;;;;7.98;82.34;97161.28;5080251;28;20503;-81
2023/11/10 00:03:41;;;;;;;2.42;1.02;;;;;;;7.93;82.04;97163.94;5079222;28;20068;-81
2023/11/10 00:06:07;;;;;;;1.20;0.95;;;;;;;7.86;82.42;97162.66;5065265;28;20479;-80
2023/11/10 00:08:33;;;;;;;1.95;0.90;;;;;;;7.87;82.13;97157.06;5081488;28;20387;-81
2023/11/10 00:10:58;;;;;;;0.65;0.60;;;;;;;7.90;81.13;97153.09;5073240;28;20617;-81
2023/11/10 00:13:24;;;;;;;2.20;0.90;;;;;;;7.81;81.65;97147.53;5071727;28;20028;-80
2023/11/10 00:15:50;;;;;;;2.10;1.10;;;;;;;7.92;81.59;97141.13;5073262;28;20043;-81
2023/11/10 00:18:16;;;;;;;2.60;0.82;;;;;;;7.84;81.54;97139.00;5089140;28;20039;-81
2023/11/10 00:20:41;;;;;;;3.80;1.15;;;;;;;7.92;81.55;97150.94;5088016;28;20047;-81
2023/11/10 00:23:10;;;;;;;1.30;0.90;;;;;;;7.75;81.67;97145.19;5085457;28;20020;-80
2023/11/10 00:25:36;;;;;;;2.25;1.08;;;;;;;7.81;81.01;97138.78;5083318;28;20044;-81
2023/11/10 00:28:05;;;;;;;2.13;0.65;;;;;;;7.62;80.93;97119.22;5078804;28;20183;-81
2023/11/10 00:30:30;;;;;;;1.98;1.05;;;;;;;7.80;80.87;97140.63;5052817;28;20036;-80
2023/11/10 00:32:56;;;;;;;3.58;0.70;;;;;;;7.82;81.36;97138.50;5075324;28;20063;-81
2023/11/10 00:35:21;;;;;;;0.77;0.60;;;;;;;7.84;80.55;97138.25;5081046;28;20032;-81
2023/11/10 00:37:49;;;;;;;1.38;1.00;;;;;;;7.64;81.07;97130.34;5088131;28;20119;-80
2023/11/10 00:40:15;;;;;;;3.95;0.70;;;;;;;7.74;80.95;97138.25;5095318;27;20074;-81
2023/11/10 00:42:41;;;;;;;0.90;0.80;;;;;;;7.71;81.36;97139.59;5061632;28;20036;-81
2023/11/10 00:45:07;;;;;;;4.15;0.88;;;;;;;7.67;82.23;97143.06;5066142;28;20419;-81
2023/11/10 00:47:32;;;;;;;4.38;1.27;;;;;;;7.42;81.84;97152.72;5081596;28;20071;-80
2023/11/10 00:49:58;;;;;;;2.30;0.95;;;;;;;7.64;81.10;97148.94;5085616;28;20465;-81
2023/11/10 00:52:23;;;;;;;1.58;0.70;;;;;;;7.65;81.79;97161.94;5088647;28;20026;-81
2023/11/10 00:54:49;;;;;;;1.55;0.50;;;;;;;7.53;81.62;97159.56;5069878;28;20028;-81
2023/11/10 00:57:15;;;;;;;0.85;0.60;;;;;;;7.56;81.51;97158.25;5085808;28;20028;-80
2023/11/10 00:59:40;;;;;;;1.15;0.60;;;;;;;7.63;81.00;97160.59;5080900;28;20050;-81
2023/11/10 01:02:05;;;;;;;1.17;0.60;;;;;;;7.51;81.01;97156.38;5070119;28;20470;-80
2023/11/10 01:04:31;;;;;;;1.05;1.00;;;;;;;7.47;81.18;97163.31;5068842;28;20032;-81
2023/11/10 01:06:56;;;;;;;1.75;0.60;;;;;;;7.55;80.92;97161.97;5080591;28;20033;-81
2023/11/10 01:09:22;;;;;;;2.05;0.52;;;;;;;7.58;81.21;97156.09;5077404;28;20028;-81
2023/11/10 01:11:48;;;;;;;1.08;0.90;;;;;;;7.31;81.99;97151.16;5082951;28;20032;-81
2023/11/10 01:14:13;;;;;;;1.30;0.80;;;;;;;7.45;80.83;97146.06;5076867;28;20028;-81
2023/11/10 01:16:39;;;;;;;1.92;0.70;;;;;;;7.52;80.73;97155.34;5070566;28;20074;-81
2023/11/10 01:19:05;;;;;;;2.28;0.70;;;;;;;7.53;80.86;97164.09;5050143;28;20052;-81
2023/11/10 01:21:31;;;;;;;0.70;0.68;;;;;;;7.51;81.47;97147.66;5083300;28;20433;-81
2023/11/10 01:23:56;;;;;;;0.70;0.60;;;;;;;7.45;81.43;97159.34;5069488;28;20053;-81
2023/11/10 01:26:22;;;;;;;2.88;0.57;;;;;;;7.51;80.17;97147.66;5072003;28;20400;-81
2023/11/10 01:28:48;;;;;;;2.40;0.73;;;;;;;7.47;81.05;97142.06;5079515;28;20039;-81
2023/11/10 01:31:15;;;;;;;1.38;0.70;;;;;;;7.37;81.11;97142.13;5081942;28;20031;-81
2023/11/10 01:33:40;;;;;;;0.88;0.57;;;;;;;7.40;81.37;97140.78;5084585;28;20647;-81
2023/11/10 01:36:06;;;;;;;2.00;0.85;;;;;;;7.35;80.93;97138.13;5060654;28;20414;-81
2023/11/10 01:38:31;;;;;;;1.45;0.75;;;;;;;7.23;81.77;97129.69;5081505;28;20055;-81
2023/11/10 01:40:57;;;;;;;0.75;0.50;;;;;;;7.30;81.60;97146.09;5082078;28;20456;-81
2023/11/10 01:43:23;;;;;;;1.73;0.60;;;;;;;7.29;82.12;97137.38;5066082;28;20511;-81
2023/11/10 01:45:49;;;;;;;0.82;0.60;;;;;;;7.26;80.75;97123.81;5083007;28;20399;-81
2023/11/10 01:48:15;;;;;;;1.95;0.75;;;;;;;7.33;81.39;97137.63;5071743;28;20537;-81
2023/11/10 01:50:42;;;;;;;2.65;0.52;;;;;;;7.30;80.52;97117.72;5083842;28;20032;-81
2023/11/10 01:53:09;;;;;;;3.03;0.85;;;;;;;7.22;80.77;97112.97;5065770;28;20028;-81
2023/11/10 01:55:35;;;;;;;1.38;0.75;;;;;;;7.27;81.26;97114.81;5084653;28;20059;-81
2023/11/10 01:58:02;;;;;;;1.92;0.80;;;;;;;7.17;81.74;97115.63;5055046;28;20080;-81
2023/11/10 02:00:30;;;;;;;0.90;0.90;;;;;;;7.03;81.71;97116.44;5074584;28;20035;-81
2023/11/10 02:03:03;;;;;;;1.42;0.80;;;;;;;6.75;81.82;97107.97;5068071;28;20032;-81
2023/11/10 02:05:32;;;;;;;0.70;0.70;;;;;;;6.70;82.23;97102.72;5083304;28;20039;-81
2023/11/10 02:07:58;;;;;;;3.33;0.50;;;;;;;6.82;81.91;97116.47;5068867;28;20043;-81
2023/11/10 02:10:24;;;;;;;2.05;0.60;;;;;;;6.78;82.21;97109.31;5062157;28;20025;-81
2023/11/10 02:12:54;;;;;;;2.90;0.80;;;;;;;6.69;82.74;97109.06;5079067;28;20051;-81
2023/11/10 02:15:24;;;;;;;1.35;0.98;;;;;;;6.31;83.12;97117.50;5087409;28;20024;-81
2023/11/10 02:17:50;;;;;;;1.48;0.60;;;;;;;6.37;84.30;97115.66;5085865;28;20033;-81
2023/11/10 02:20:16;;;;;;;1.92;0.60;;;;;;;6.49;82.31;97116.19;5087698;28;20372;-80
2023/11/10 02:22:47;;;;;;;1.20;0.68;;;;;;;6.39;82.90;97116.19;5068299;28;20135;-81
2023/11/10 02:25:19;;;;;;;2.53;0.70;;;;;;;6.43;84.20;97136.63;5084502;28;20024;-81
2023/11/10 02:27:45;;;;;;;0.60;0.60;;;;;;;6.92;82.36;97125.47;5079719;28;20028;-81
2023/11/10 02:30:11;;;;;;;1.95;0.80;;;;;;;6.57;83.06;97137.69;5067709;28;20038;-81
2023/11/10 02:32:37;;;;;;;2.90;0.82;;;;;;;6.85;82.31;97132.91;5069088;28;20040;-82
2023/11/10 02:35:06;;;;;;;1.27;0.77;;;;;;;6.83;82.67;97127.88;5068936;28;20038;-81
2023/11/10 02:37:32;;;;;;;3.17;1.33;;;;;;;6.75;81.61;97136.34;5084138;28;20038;-81
2023/11/10 02:39:58;;;;;;;1.27;0.88;;;;;;;6.18;83.62;97130.50;5094209;28;20077;-81
2023/11/10 02:42:23;;;;;;;2.72;2.10;;;;;;;6.35;83.85;97136.34;5079594;28;20016;-81
2023/11/10 02:44:48;;;;;;;1.55;0.98;;;;;;;6.33;83.87;97139.25;5070860;28;20118;-81
2023/11/10 02:47:14;;;;;;;1.10;0.82;;;;;;;6.30;83.36;97131.03;5083860;28;20063;-81
2023/11/10 02:49:39;;;;;;;1.15;0.70;;;;;;;6.33;84.61;97126.00;5066569;28;20463;-81
2023/11/10 02:52:05;;;;;;;1.83;1.70;;;;;;;6.36;84.45;97144.00;5084774;28;20032;-80
2023/11/10 02:54:30;;;;;;;0.73;0.73;;;;;;;6.28;83.94;97119.91;5083707;28;20032;-81
2023/11/10 02:56:55;;;;;;;2.53;1.00;;;;;;;5.87;84.94;97126.97;5068996;28;20458;-81
2023/11/10 02:59:21;;;;;;;1.10;1.00;;;;;;;5.98;86.70;97121.41;5050708;28;20118;-80
2023/11/10 03:01:46;;;;;;;1.77;0.98;;;;;;;6.21;86.20;97111.41;5082856;28;20056;-81
2023/11/10 03:04:11;;;;;;;5.32;0.93;;;;;;;6.50;84.19;97115.94;5081703;28;20020;-81
2023/11/10 03:06:37;;;;;;;3.13;1.20;;;;;;;6.19;84.21;97094.97;5072195;28;20078;-81
2023/11/10 03:09:03;;;;;;;3.28;0.88;;;;;;;6.37;84.50;97103.22;5066024;28;20167;-81
2023/11/10 03:11:28;;;;;;;3.20;0.95;;;;;;;6.51;83.97;97101.63;5080633;28;20074;-81
2023/11/10 03:13:54;;;;;;;5.32;0.93;;;;;;;6.35;82.94;97093.94;5063520;28;20408;-81
2023/11/10 03:16:22;;;;;;;1.67;0.80;;;;;;;6.43;84.14;97096.88;5083392;28;20051;-81
2023/11/10 03:18:52;;;;;;;1.00;0.90;;;;;;;6.77;82.45;97094.47;5085538;28;20032;-81
2023/11/10 03:21:19;;;;;;;0.68;0.68;;;;;;;6.49;83.22;97106.41;5066254;28;20491;-81
2023/11/10 03:23:45;;;;;;;3.50;1.08;;;;;;;6.72;82.45;97105.09;5077154;28;20051;-81
2023/11/10 03:26:11;;;;;;;0.77;0.77;;;;;;;6.78;82.16;97102.16;5063744;28;20024;-81
2023/11/10 03:28:36;;;;;;;1.85;1.08;;;;;;;6.44;82.99;97084.41;5062615;28;20038;-81
2023/11/10 03:31:06;;;;;;;3.40;1.38;;;;;;;6.54;82.89;97089.69;5082071;28;20032;-80
2023/11/10 03:33:33;;;;;;;3.20;0.95;;;;;;;6.66;83.40;97091.03;5061655;28;20357;-81
2023/11/10 03:35:59;;;;;;;1.02;0.80;;;;;;;6.74;82.57;97069.28;5076540;28;20038;-81
2023/11/10 03:38:25;;;;;;;2.70;1.20;;;;;;;6.82;82.50;97076.69;5083047;28;20031;-81
2023/11/10 03:40:51;;;;;;;1.92;0.70;;;;;;;7.01;81.83;97071.59;5068734;28;20368;-81
2023/11/10 03:43:16;;;;;;;1.10;1.00;;;;;;;6.89;81.49;97073.78;5080381;28;20086;-81
2023/11/10 03:45:42;;;;;;;2.92;0.80;;;;;;;6.97;81.22;97083.81;5054674;28;20130;-81
2023/11/10 03:48:07;;;;;;;2.58;1.33;;;;;;;6.91;81.30;97078.78;5070966;28;20043;-81
2023/11/10 03:50:33;;;;;;;3.70;0.98;;;;;;;6.81;81.17;97069.03;5070829;28;20050;-81
2023/11/10 03:53:00;;;;;;;2.22;0.80;;;;;;;6.96;81.87;97062.88;5066770;28;20029;-81
2023/11/10 03:55:25;;;;;;;2.33;1.10;;;;;;;6.89;81.51;97063.16;5060815;28;20067;-81
2023/11/10 03:57:51;;;;;;;7.45;1.77;;;;;;;6.90;81.45;97067.41;5077529;28;20063;-81
2023/11/10 04:00:18;;;;;;;1.67;1.00;;;;;;;6.87;82.17;97073.25;5085374;28;20023;-81
2023/11/10 04:02:44;;;;;;;2.55;0.77;;;;;;;6.77;81.94;97083.88;5063852;28;20032;-81
2023/11/10 04:05:11;;;;;;;3.90;1.10;;;;;;;6.94;81.22;97094.97;5067705;28;20544;-81
2023/11/10 04:07:36;;;;;;;2.15;1.10;;;;;;;6.79;81.60;97085.16;5088074;28;20031;-81
2023/11/10 04:10:02;;;;;;;4.15;1.42;;;;;;;6.94;81.78;97092.34;5083388;28;20040;-81
2023/11/10 04:12:27;;;;;;;1.38;1.02;;;;;;;6.90;81.81;97080.69;5080997;28;20040;-81
2023/11/10 04:14:54;;;;;;;3.78;1.50;;;;;;;6.80;81.61;97081.47;5085179;28;20024;-81
2023/11/10 04:17:19;;;;;;;1.98;0.95;;;;;;;6.90;80.76;97072.72;5068103;28;20028;-81
2023/11/10 04:19:44;;;;;;;0.90;0.77;;;;;;;6.78;82.02;97062.38;5080235;28;20080;-81
2023/11/10 04:22:10;;;;;;;1.17;0.85;;;;;;;6.72;82.06;97070.63;5080679;28;20399;-81
2023/11/10 04:24:35;;;;;;;4.68;1.50;;;;;;;6.71;82.10;97066.38;5078139;28;20036;-81
2023/11/10 04:27:01;;;;;;;2.88;0.95;;;;;;;6.85;81.48;97063.97;5074877;28;20444;-81
2023/11/10 04:29:26;;;;;;;1.60;0.77;;;;;;;6.68;82.36;97045.72;5078184;28;21621;-81
2023/11/10 04:31:51;;;;;;;4.50;1.10;;;;;;;6.79;82.25;97066.63;5082827;28;20034;-81
2023/11/10 04:34:17;;;;;;;1.77;0.80;;;;;;;6.81;81.71;97050.47;5085046;28;20054;-81
2023/11/10 04:36:45;;;;;;;0.90;0.63;;;;;;;6.86;82.11;97054.97;5088543;28;20394;-81
2023/11/10 04:39:11;;;;;;;1.58;0.98;;;;;;;6.86;81.84;97058.38;5082843;28;20168;-81
2023/11/10 04:41:38;;;;;;;1.35;0.98;;;;;;;6.55;82.33;97036.41;5084816;28;20032;-81
2023/11/10 04:44:05;;;;;;;3.83;1.23;;;;;;;6.74;81.97;97034.81;5083374;28;20496;-81
2023/11/10 04:46:31;;;;;;;3.30;1.00;;;;;;;6.70;82.57;97039.09;5085557;28;20062;-81
2023/11/10 04:48:57;;;;;;;3.00;1.13;;;;;;;6.69;82.54;97026.88;5077137;28;20028;-81
2023/11/10 04:51:22;;;;;;;2.72;0.90;;;;;;;6.78;81.48;97030.56;5081063;28;20032;-81
2023/11/10 04:53:47;;;;;;;3.20;0.88;;;;;;;6.80;81.75;97033.75;5080508;28;20123;-81
2023/11/10 04:56:14;;;;;;;2.58;0.65;;;;;;;6.74;82.49;97029.53;5081003;28;20391;-81
2023/11/10 04:58:43;;;;;;;2.42;0.90;;;;;;;6.79;81.13;97032.16;5079422;28;20040;-81
2023/11/10 05:01:09;;;;;;;2.25;1.02;;;;;;;6.79;81.63;97032.16;5080779;28;20181;-81
2023/11/10 05:03:34;;;;;;;2.70;1.20;;;;;;;6.81;81.40;97040.63;5081159;28;20106;-81
2023/11/10 05:06:01;;;;;;;2.45;1.17;;;;;;;6.84;80.85;97041.94;5077581;28;20111;-81
2023/11/10 05:08:27;;;;;;;4.13;1.08;;;;;;;6.84;81.71;97049.13;5077915;28;20387;-81
2023/11/10 05:10:52;;;;;;;2.03;1.10;;;;;;;6.92;81.05;97056.53;5077317;28;20028;-81
2023/11/10 05:13:18;;;;;;;3.38;0.93;;;;;;;6.76;81.75;97045.16;5059034;28;20059;-81
2023/11/10 05:15:43;;;;;;;2.72;1.00;;;;;;;6.70;81.65;97049.69;5058006;28;20032;-81
2023/11/10 05:18:12;;;;;;;3.50;1.30;;;;;;;6.78;81.60;97050.97;5048353;28;20027;-81
2023/11/10 05:20:37;;;;;;;4.95;1.13;;;;;;;6.75;81.52;97051.50;5074238;28;20028;-81
2023/11/10 05:23:02;;;;;;;2.85;1.88;;;;;;;6.84;81.72;97054.44;5078267;28;20020;-82
2023/11/10 05:25:28;;;;;;;2.97;1.05;;;;;;;6.90;81.60;97051.50;5081405;28;20488;-81
2023/11/10 05:27:54;;;;;;;3.15;1.35;;;;;;;6.80;81.41;97059.47;5086058;28;20122;-82
2023/11/10 05:30:20;;;;;;;1.58;1.02;;;;;;;6.85;80.97;97042.75;5079428;28;20056;-81
2023/11/10 05:32:47;;;;;;;1.60;1.20;;;;;;;6.93;81.56;97058.09;5078062;28;20085;-81
2023/11/10 05:35:12;;;;;;;1.60;1.35;;;;;;;6.64;81.89;97055.25;5092238;27;20089;-82
2023/11/10 05:37:38;;;;;;;1.50;1.15;;;;;;;6.82;81.43;97062.63;5081069;28;20479;-81
2023/11/10 05:40:05;;;;;;;3.63;0.80;;;;;;;6.59;82.43;97057.91;5084047;28;20031;-81
2023/11/10 05:42:31;;;;;;;5.25;1.63;;;;;;;6.50;81.91;97064.78;5082779;28;20028;-81
2023/11/10 05:44:57;;;;;;;2.63;1.27;;;;;;;6.27;83.19;97076.72;5088554;28;20024;-81
2023/11/10 05:47:23;;;;;;;2.60;1.23;;;;;;;6.19;83.89;97069.28;5085461;28;20032;-81
2023/11/10 05:49:48;;;;;;;1.85;1.20;;;;;;;6.50;82.64;97078.84;5070046;28;20043;-81
2023/11/10 05:52:14;;;;;;;4.45;1.33;;;;;;;6.57;82.92;97086.53;5086303;28;20031;-81
2023/11/10 05:54:40;;;;;;;3.88;1.55;;;;;;;6.45;82.47;97088.63;5079635;28;20032;-82
2023/11/10 05:57:05;;;;;;;4.80;1.38;;;;;;;6.46;82.16;97084.94;5060446;28;20742;-81
2023/11/10 05:59:32;;;;;;;2.70;1.60;;;;;;;6.43;82.88;97091.56;5077958;28;20119;-82
2023/11/10 06:01:58;;;;;;;4.75;1.38;;;;;;;5.92;84.25;97074.81;5075773;28;20028;-81
2023/11/10 06:04:24;;;;;;;1.50;1.05;;;;;;;6.14;84.31;97081.75;5080944;28;20130;-81
2023/11/10 06:06:50;;;;;;;3.53;1.15;;;;;;;6.30;83.80;97091.28;5087069;28;20139;-81
2023/11/10 06:09:20;;;;;;;4.88;1.40;;;;;;;6.43;83.40;97093.41;5081234;28;20042;-81
2023/11/10 06:11:45;;;;;;;4.13;1.63;;;;;;;6.31;83.51;97103.47;5082191;28;20114;-82
2023/11/10 06:14:11;;;;;;;2.22;1.48;;;;;;;6.02;84.51;97096.03;5055977;28;20436;-81
2023/11/10 06:16:40;;;;;;;1.70;0.90;;;;;;;6.14;84.75;97095.00;5083735;28;20031;-82
2023/11/10 06:19:06;;;;;;;4.60;1.60;;;;;;;6.09;84.39;97090.47;5086244;28;20074;-81
2023/11/10 06:21:32;;;;;;;5.28;1.60;;;;;;;6.53;82.83;97102.16;5083343;28;20112;-82
2023/11/10 06:23:57;;;;;;;4.32;1.27;;;;;;;6.61;83.76;97092.88;5083052;28;20446;-82
2023/11/10 06:26:23;;;;;;;1.00;0.75;;;;;;;6.52;82.97;97089.97;5085131;28;20062;-82
2023/11/10 06:28:51;;;;;;;1.52;1.17;;;;;;;6.60;83.05;97099.25;5085787;28;20028;-82
2023/11/10 06:31:20;;;;;;;2.25;1.27;;;;;;;6.40;84.14;97102.69;5085409;28;20077;-82
2023/11/10 06:33:46;;;;;;;4.28;1.55;;;;;;;6.41;83.78;97098.97;5082644;28;20040;-82
2023/11/10 06:36:14;;;;;;;3.05;1.20;;;;;;;6.17;84.75;97099.75;5090402;28;20028;-82
2023/11/10 06:38:39;;;;;;;2.75;1.00;;;;;;;6.82;82.73;97099.75;5063189;28;20036;-82
2023/11/10 06:41:05;;;;;;;2.85;1.48;;;;;;;6.55;83.07;97093.97;5082374;28;20055;-82
2023/11/10 06:43:30;;;;;;;4.25;1.70;;;;;;;6.62;82.63;97105.88;5082483;28;20036;-82
2023/11/10 06:45:55;;;;;;;2.45;1.40;;;;;;;6.38;82.46;97065.06;5075100;28;20502;-81
2023/11/10 06:48:21;;;;;;;1.95;1.33;;;;;;;6.71;82.60;97092.88;5089004;28;20039;-82
2023/11/10 06:50:47;;;;;;;3.85;1.55;;;;;;;6.91;81.67;97102.66;5090619;28;20442;-82
2023/11/10 06:53:12;;;;;;;2.83;1.35;;;;;;;6.68;82.35;97104.81;5066140;28;20052;-82
2023/11/10 06:55:39;;;;;;;3.50;1.35;;;;;;;6.56;82.82;97111.44;5050719;28;20190;-82
2023/11/10 06:58:05;;;;;;;5.00;1.58;;;;;;;6.68;82.99;97112.75;5087433;28;20085;-81
2023/11/10 07:00:30;;;;;;;11.20;3.65;;;;;;;6.58;82.18;97109.31;5087865;28;20032;-82
2023/11/10 07:02:56;;;;;;;11.93;2.80;;;;;;;6.65;82.14;97118.59;5086855;28;20441;-82
2023/11/10 07:05:25;;;;;;;5.68;2.00;;;;;;;6.59;82.74;97095.81;5083117;28;20042;-82
2023/11/10 07:07:51;;;;;;;6.85;1.40;;;;;;;6.71;82.05;97098.19;5090100;28;20115;-82
2023/11/10 07:10:17;;;;;;;6.93;2.33;;;;;;;6.73;82.37;97098.69;5084326;28;20064;-82
2023/11/10 07:12:42;;;;;;;5.35;1.45;;;;;;;6.63;82.81;97101.38;5085011;28;20033;-82
2023/11/10 07:15:09;;;;;;;6.13;1.60;;;;;;;6.71;82.35;97098.97;5048394;28;20039;-82
2023/11/10 07:17:36;;;;;;;8.23;1.55;;;;;;;6.48;82.89;97096.88;5090880;28;20103;-82
2023/11/10 07:20:05;;;;;;;3.38;1.38;;;;;;;6.56;83.10;97096.34;5088039;28;20122;-82
2023/11/10 07:22:30;;;;;;;3.95;1.58;;;;;;;6.68;82.35;97109.34;5079259;28;20028;-82
2023/11/10 07:24:56;;;;;;;2.85;1.48;;;;;;;6.61;82.62;97108.78;5083636;28;20115;-82
2023/11/10 07:27:21;;;;;;;3.85;1.40;;;;;;;6.83;82.47;97114.63;5058205;28;20394;-82
2023/11/10 07:29:47;;;;;;;1.80;1.17;;;;;;;6.96;82.38;97118.56;5078112;28;20063;-82
2023/11/10 07:32:12;;;;;;;1.60;1.30;;;;;;;6.76;81.13;97114.09;5068635;28;20037;-81
2023/11/10 07:34:37;;;;;;;3.80;1.23;;;;;;;6.57;82.37;97119.16;5072999;28;20028;-82
2023/11/10 07:37:03;;;;;;;7.80;1.70;;;;;;;6.83;82.33;97122.56;5082366;28;20489;-81
2023/11/10 07:39:28;;;;;;;3.75;1.60;;;;;;;6.80;82.29;97115.94;5067706;28;20028;-81
2023/11/10 07:41:55;;;;;;;6.85;1.40;;;;;;;6.78;82.21;97109.31;5077496;28;20028;-81
2023/11/10 07:44:20;;;;;;;4.32;1.90;;;;;;;6.82;82.13;97123.63;5083923;28;20089;-81
2023/11/10 07:46:45;;;;;;;4.10;1.05;;;;;;;6.79;81.77;97124.19;5081351;28;20036;-81
2023/11/10 07:49:11;;;;;;;2.85;1.58;;;;;;;6.85;82.18;97124.94;5087803;28;20091;-81
2023/11/10 07:51:36;;;;;;;4.10;1.40;;;;;;;6.85;81.98;97130.25;5071049;28;20048;-81
2023/11/10 07:54:02;;;;;;;2.55;1.08;;;;;;;6.89;81.98;97123.34;5081838;28;20079;-81
2023/11/10 07:56:27;;;;;;;3.28;1.65;;;;;;;6.69;82.71;97130.25;5072700;28;20228;-81
2023/11/10 07:58:52;;;;;;;2.50;1.40;;;;;;;7.00;81.96;97132.88;5078021;28;20480;-82
2023/11/10 08:01:18;;;;;;;5.15;1.48;;;;;;;7.02;80.99;97138.72;5049821;28;20069;-81
2023/11/10 08:03:44;;;;;;;7.63;1.55;;;;;;;6.97;81.67;97128.91;5086897;28;20027;-81
2023/11/10 08:06:09;;;;;;;4.30;1.23;;;;;;;7.07;81.90;97128.13;5069709;28;20040;-82
2023/11/10 08:08:36;;;;;;;2.35;1.20;;;;;;;6.94;82.22;97133.97;5071393;28;20441;-82
2023/11/10 08:11:01;;;;;;;4.72;1.65;;;;;;;6.98;81.84;97141.13;5086243;28;20040;-82
2023/11/10 08:13:27;;;;;;;6.47;1.75;;;;;;;7.04;81.82;97133.94;5068898;28;20450;-82
2023/11/10 08:15:52;;;;;;;5.28;1.38;;;;;;;7.05;81.78;97133.69;5081223;28;20573;-81
2023/11/10 08:18:18;;;;;;;6.30;1.65;;;;;;;7.03;81.53;97117.25;5102458;28;20071;-82
2023/11/10 08:20:44;;;;;;;2.10;1.15;;;;;;;6.99;82.37;97134.75;5087630;28;20096;-81
2023/11/10 08:23:10;;;;;;;3.25;1.48;;;;;;;7.10;81.91;97132.91;5087430;28;20024;-82
2023/11/10 08:25:36;;;;;;;4.05;1.25;;;;;;;7.06;82.27;97143.22;5085269;28;20024;-82
2023/11/10 08:28:04;;;;;;;3.22;1.50;;;;;;;7.05;82.07;97139.00;5085394;28;20684;-82
2023/11/10 08:30:32;;;;;;;6.60;1.55;;;;;;;7.08;81.80;97138.44;5086032;28;20033;-82
2023/11/10 08:32:59;;;;;;;4.43;1.80;;;;;;;7.10;81.64;97135.53;5074709;28;20020;-81
2023/11/10 08:35:25;;;;;;;3.38;1.40;;;;;;;7.09;81.46;97131.28;5073505;28;20039;-82
2023/11/10 08:37:50;;;;;;;2.65;1.25;;;;;;;7.18;80.93;97135.00;5085493;28;21310;-82
2023/11/10 08:40:16;;;;;;;4.70;1.17;;;;;;;7.21;81.07;97135.25;5069498;28;20567;-82
2023/11/10 08:42:41;;;;;;;3.20;1.30;;;;;;;7.15;81.39;97127.56;5083537;28;20115;-82
2023/11/10 08:45:08;;;;;;;2.72;1.15;;;;;;;7.24;81.22;97134.72;5073515;28;20047;-82
2023/11/10 08:47:33;;;;;;;5.78;1.50;;;;;;;7.12;81.48;97136.06;5049212;28;20024;-81
2023/11/10 08:49:58;;;;;;;4.85;1.73;;;;;;;7.15;81.26;97140.81;5089492;28;20047;-81
2023/11/10 08:52:24;;;;;;;2.53;1.52;;;;;;;7.22;81.35;97146.66;5087971;28;20419;-82
2023/11/10 08:54:51;;;;;;;3.15;1.55;;;;;;;7.15;81.16;97146.94;5069570;28;20028;-82
2023/11/10 08:57:16;;;;;;;4.55;1.25;;;;;;;6.98;81.72;97151.72;5086530;28;20028;-81
2023/11/10 08:59:41;;;;;;;1.23;1.13;;;;;;;7.01;81.62;97148.53;5086176;28;20388;-81
2023/11/10 09:02:07;;;;;;;5.40;1.40;;;;;;;7.23;81.22;97158.88;5069836;28;20032;-82
2023/11/10 09:04:32;;;;;;;2.30;1.83;;;;;;;7.17;81.19;97157.25;5082149;28;20442;-81
2023/11/10 09:06:58;;;;;;;3.25;1.20;;;;;;;7.10;81.29;97141.63;5061928;28;20031;-82
2023/11/10 09:09:23;;;;;;;4.43;0.82;;;;;;;7.19;80.92;97147.97;5084842;28;20032;-81
2023/11/10 09:11:49;;;;;;;1.88;1.08;;;;;;;7.24;80.13;97150.63;5083054;28;20036;-82
2023/11/10 09:14:14;;;;;;;8.48;1.55;;;;;;;7.31;81.21;97160.97;5083094;28;20391;-82
2023/11/10 09:16:41;;;;;;;2.50;1.45;;;;;;;7.34;80.86;97152.44;5085105;28;20094;-81
2023/11/10 09:19:06;;;;;;;4.47;1.25;;;;;;;7.42;81.28;97152.72;5086149;28;20097;-81
2023/11/10 09:21:31;;;;;;;2.28;0.85;;;;;;;7.55;80.73;97156.66;5082988;28;20032;-82
2023/11/10 09:23:57;;;;;;;2.97;1.10;;;;;;;7.63;80.55;97148.13;5087332;28;20020;-82
2023/11/10 09:26:22;;;;;;;5.15;1.02;;;;;;;7.71;80.41;97155.53;5091092;28;20023;-81
2023/11/10 09:28:49;;;;;;;2.13;1.27;;;;;;;7.65;79.56;97137.22;5085700;28;20036;-82
2023/11/10 09:31:15;;;;;;;4.20;1.05;;;;;;;7.80;79.81;97148.59;5081599;28;20028;-81
2023/11/10 09:33:40;;;;;;;3.40;1.52;;;;;;;7.79;79.02;97135.59;5083465;28;20093;-82
2023/11/10 09:36:06;;;;;;;3.40;0.70;;;;;;;7.88;78.69;97157.88;5075091;28;20036;-82
2023/11/10 09:38:32;;;;;;;5.32;1.02;;;;;;;7.85;78.99;97145.13;5084109;28;20016;-82
2023/11/10 09:40:57;;;;;;;3.10;1.48;;;;;;;7.87;78.79;97137.69;5087653;28;20042;-81
2023/11/10 09:43:24;;;;;;;2.50;1.00;;;;;;;7.91;78.26;97144.84;5104688;28;20078;-82
2023/11/10 09:45:51;;;;;;;7.10;1.42;;;;;;;8.02;78.01;97151.69;5070985;28;20404;-82
2023/11/10 09:48:19;;;;;;;4.63;1.00;;;;;;;8.06;78.15;97144.75;5083205;28;20024;-82
2023/11/10 09:50:47;;;;;;;2.38;1.10;;;;;;;8.07;78.29;97148.22;5091064;28;20031;-81
2023/11/10 09:53:13;;;;;;;3.25;0.95;;;;;;;8.07;77.59;97142.91;5070050;28;20033;-81
2023/11/10 09:55:40;;;;;;;2.47;1.30;;;;;;;8.14;77.05;97143.41;5074927;28;20055;-82
2023/11/10 09:58:09;;;;;;;1.20;0.90;;;;;;;8.26;76.88;97151.84;5071013;28;20040;-82
2023/11/10 10:00:36;;;;;;;0.93;0.63;;;;;;;8.28;76.26;97147.06;5089673;28;20028;-82
2023/11/10 10:03:04;;;;;;;3.42;0.90;;;;;;;8.32;76.28;97137.50;5090556;28;20063;-82
2023/11/10 10:05:30;;;;;;;2.15;1.17;;;;;;;8.37;76.17;97153.38;5081689;28;20055;-82
2023/11/10 10:07:55;;;;;;;2.58;0.98;;;;;;;8.36;75.86;97146.50;5066190;28;20059;-82
2023/11/10 10:10:22;;;;;;;2.70;1.15;;;;;;;8.46;76.01;97151.72;5086392;28;20028;-82
2023/11/10 10:12:48;;;;;;;2.35;1.10;;;;;;;8.52;75.49;97149.84;5087828;28;20039;-81
2023/11/10 10:15:25;;;;;;;3.03;0.82;;;;;;;8.57;75.74;97155.13;5077032;28;20369;-81
2023/11/10 10:17:51;;;;;;;3.20;0.77;;;;;;;8.49;75.67;97143.22;5084814;28;20157;-81
2023/11/10 10:20:18;;;;;;;2.53;1.00;;;;;;;8.62;75.62;97152.44;5082674;28;20471;-81
2023/11/10 10:22:49;;;;;;;1.52;1.40;;;;;;;8.63;75.85;97138.03;5087260;28;20097;-81
2023/11/10 10:25:20;;;;;;;1.10;0.80;;;;;;;8.74;75.19;97143.03;5067060;28;20043;-82
2023/11/10 10:27:46;;;;;;;5.55;1.20;;;;;;;8.86;74.98;97140.00;5083140;28;20056;-81
2023/11/10 10:30:12;;;;;;;2.05;1.00;;;;;;;8.93;75.11;97148.47;5088036;28;20051;-82
2023/11/10 10:32:38;;;;;;;3.20;1.38;;;;;;;8.85;75.24;97131.22;5070285;28;20491;-81
2023/11/10 10:35:03;;;;;;;3.10;1.08;;;;;;;8.91;75.35;97132.75;5059507;28;20036;-82
2023/11/10 10:37:29;;;;;;;1.92;0.88;;;;;;;9.00;74.43;97136.41;5084376;28;20043;-82
2023/11/10 10:39:59;;;;;;;3.15;2.67;;;;;;;8.94;74.43;97140.19;5069848;28;20043;-82
2023/11/10 10:42:31;;;;;;;3.40;1.02;;;;;;;8.95;74.98;97125.81;5084954;28;20028;-82
2023/11/10 10:44:58;;;;;;;5.00;1.30;;;;;;;9.03;74.58;97124.41;5079586;28;20118;-82
2023/11/10 10:47:25;;;;;;;3.55;1.13;;;;;;;8.95;74.84;97141.78;5071720;28;20040;-82
2023/11/10 10:49:51;;;;;;;2.17;0.88;;;;;;;8.95;74.95;97133.78;5089129;28;20032;-81
2023/11/10 10:52:18;;;;;;;2.83;1.27;;;;;;;9.04;74.61;97136.66;5074558;28;20150;-82
2023/11/10 10:54:43;;;;;;;1.50;0.98;;;;;;;9.01;74.97;97131.88;5088762;28;20031;-82
2023/11/10 10:57:13;;;;;;;3.15;0.88;;;;;;;9.00;75.07;97130.28;5094156;28;20020;-82
2023/11/10 10:59:38;;;;;;;1.83;1.08;;;;;;;8.96;75.04;97127.41;5076645;28;20630;-82
2023/11/10 11:02:08;;;;;;;4.93;0.95;;;;;;;8.98;74.30;97121.78;5079645;28;20036;-82
2023/11/10 11:05:12;;;;;;;0.98;0.75;;;;;;;9.04;73.82;97140.09;5091449;28;20435;-82
2023/11/10 11:07:37;;;;;;;2.58;0.85;;;;;;;9.08;74.53;97137.69;5066293;28;20147;-80
2023/11/10 11:10:18;;;;;;;2.28;0.85;;;;;;;9.05;73.92;97139.03;5092417;28;20105;-81
2023/11/10 11:13:03;;;;;;;3.63;0.93;;;;;;;9.04;74.07;97128.69;5086029;28;20484;-81
2023/11/10 11:15:49;;;;;;;1.25;1.02;;;;;;;8.92;74.31;97134.38;5088774;28;20031;-81
2023/11/10 11:18:20;;;;;;;2.90;0.90;;;;;;;8.86;74.59;97130.16;5092110;28;20033;-81
2023/11/10 11:20:47;;;;;;;3.55;1.15;;;;;;;8.79;74.50;97124.38;5086947;28;20047;-81
2023/11/10 11:23:13;;;;;;;3.58;1.13;;;;;;;8.72;75.21;97112.44;5080673;28;20060;-81
2023/11/10 11:25:39;;;;;;;4.72;1.30;;;;;;;8.83;74.46;97114.75;5081110;28;20479;-81
2023/11/10 11:28:05;;;;;;;3.95;1.30;;;;;;;8.80;74.65;97123.28;5053193;28;20032;-81
2023/11/10 11:30:37;;;;;;;3.70;0.88;;;;;;;8.73;74.41;97125.50;5072830;28;20058;-81
2023/11/10 11:33:05;;;;;;;3.67;1.10;;;;;;;8.71;74.20;97124.19;5100953;28;20028;-81
2023/11/10 11:35:46;;;;;;;5.35;0.93;;;;;;;8.73;74.97;97111.38;5105213;28;20032;-81
2023/11/10 11:38:32;;;;;;;2.40;1.20;;;;;;;8.70;74.90;97115.41;5088273;28;20028;-81